Terminal Aerodrome Forecast
Issued by NWS

Home | Current Version | Previous Version | Text Only | Print | Product List | Glossary On
Versions: 1 2 3 4 5 6 7 8 9 10 11 12 13 14 15 16 17 18 19 20 21
000
FTUS41 KGYX 221819 AAA
TAFHIE
TAF AMD
KHIE 221819Z 2218/2318 VRB03KT P6SM -SHRA OVC035
     FM222200 VRB03KT P6SM SCT035 BKN100
      TEMPO 2306/2310 2SM BR SCT002=

USA.gov is the U.S. government's official web portal to all federal, state and local government web resources and services.